Time;durP1;ratioP1;P1;durP2;ratioP2;P2;SDS_P1;SDS_P2;PMS_P1;PMS_P2;Temp;Humidity;BMP_temperature;BMP_pressure;BME280_temperature;BME280_humidity;BME280_pressure;Samples;Min_cycle;Max_cycle;Signal;HPM_P1;HPM_P2
2023/10/21 00:01:57;;;;;;;18.60;13.98;;;9.10;99.90;;;;;;5135721;27;20213;-83
2023/10/21 00:04:25;;;;;;;19.85;14.07;;;9.20;99.90;;;;;;5131960;27;20227;-79
2023/10/21 00:06:53;;;;;;;17.40;14.27;;;9.10;99.90;;;;;;5126823;27;20222;-80
2023/10/21 00:09:22;;;;;;;20.38;15.13;;;9.10;99.90;;;;;;5137210;27;20218;-79
2023/10/21 00:11:51;;;;;;;19.88;14.32;;;9.10;99.90;;;;;;5137152;27;20271;-84
2023/10/21 00:14:18;;;;;;;24.30;14.52;;;9.10;99.90;;;;;;5119926;27;20228;-84
2023/10/21 00:16:46;;;;;;;17.98;14.68;;;9.10;99.90;;;;;;5136672;27;20270;-85
2023/10/21 00:19:13;;;;;;;20.85;16.08;;;9.00;99.90;;;;;;5122849;27;20282;-84
2023/10/21 00:21:40;;;;;;;21.08;15.15;;;9.10;99.90;;;;;;5120222;27;20222;-84
2023/10/21 00:24:08;;;;;;;20.20;14.65;;;9.00;99.90;;;;;;5117381;28;20218;-85
2023/10/21 00:26:47;;;;;;;18.48;13.88;;;9.10;99.90;;;;;;5126107;27;20281;-85
2023/10/21 00:29:15;;;;;;;20.83;15.35;;;9.10;99.90;;;;;;5138213;27;20214;-84
2023/10/21 00:31:43;;;;;;;20.73;14.50;;;9.00;99.90;;;;;;5138037;27;20229;-79
2023/10/21 00:34:15;;;;;;;19.08;15.75;;;9.00;99.90;;;;;;5137114;27;20226;-80
2023/10/21 00:36:42;;;;;;;21.30;14.95;;;9.00;99.90;;;;;;5127846;27;20229;-79
2023/10/21 00:39:10;;;;;;;21.50;14.65;;;9.00;99.90;;;;;;5124824;27;20221;-79
2023/10/21 00:41:38;;;;;;;19.60;15.15;;;9.10;99.90;;;;;;5134793;27;20226;-78
2023/10/21 00:44:08;;;;;;;18.08;14.73;;;9.20;99.90;;;;;;5134234;27;20226;-79
2023/10/21 00:46:41;;;;;;;20.23;16.75;;;9.20;99.90;;;;;;5133161;27;20308;-79
2023/10/21 00:49:21;;;;;;;;;;;;;;;;;;;;;
2023/10/21 00:51:52;;;;;;;20.02;15.57;;;9.30;99.90;;;;;;5132399;27;20277;-80
2023/10/21 00:54:22;;;;;;;21.25;15.73;;;9.20;99.90;;;;;;5140505;27;20668;-79
2023/10/21 00:59:34;;;;;;;23.77;15.43;;;9.20;99.90;;;;;;5147688;27;20221;-84
2023/10/21 01:02:06;;;;;;;20.30;14.38;;;9.20;99.90;;;;;;5137985;27;20218;-83
2023/10/21 01:04:35;;;;;;;20.08;15.88;;;9.30;99.90;;;;;;5125284;27;20218;-84
2023/10/21 01:07:02;;;;;;;26.23;17.05;;;9.20;99.90;;;;;;5133983;27;20225;-84
2023/10/21 01:09:30;;;;;;;20.55;15.48;;;9.20;99.90;;;;;;5131959;27;20225;-84
2023/10/21 01:11:57;;;;;;;26.50;16.70;;;9.20;99.90;;;;;;5134519;27;20249;-83
2023/10/21 01:14:24;;;;;;;21.85;16.92;;;9.20;99.90;;;;;;5134386;27;20218;-84
2023/10/21 01:16:51;;;;;;;23.00;15.95;;;9.30;99.90;;;;;;5134730;27;20222;-84
2023/10/21 01:19:19;;;;;;;21.77;16.38;;;9.30;99.90;;;;;;5134628;27;20222;-85
2023/10/21 01:21:46;;;;;;;21.15;16.75;;;9.30;99.90;;;;;;5134282;27;20213;-84
2023/10/21 01:24:14;;;;;;;26.95;17.23;;;9.20;99.90;;;;;;5134717;27;20297;-85
2023/10/21 01:26:44;;;;;;;25.05;16.75;;;9.20;99.90;;;;;;5133989;27;20222;-84
2023/10/21 01:29:11;;;;;;;27.15;16.65;;;9.20;99.90;;;;;;5134283;27;20218;-84
2023/10/21 01:31:38;;;;;;;24.10;18.83;;;9.30;99.90;;;;;;5135093;27;20217;-85
2023/10/21 01:34:05;;;;;;;25.13;17.52;;;9.30;99.90;;;;;;5133853;27;20214;-84
2023/10/21 01:36:32;;;;;;;26.00;16.92;;;9.40;99.90;;;;;;5134148;27;20256;-84
2023/10/21 01:38:59;;;;;;;23.10;16.60;;;9.40;99.90;;;;;;5133812;27;20229;-84
2023/10/21 01:41:27;;;;;;;22.77;16.15;;;9.40;99.90;;;;;;5134857;27;20221;-84
2023/10/21 01:43:54;;;;;;;28.05;18.85;;;9.40;99.90;;;;;;5133999;27;20246;-84
2023/10/21 01:46:21;;;;;;;25.50;18.40;;;9.40;99.90;;;;;;5137799;27;20217;-84
2023/10/21 01:48:49;;;;;;;32.83;18.73;;;9.40;99.90;;;;;;5134165;27;20222;-84
2023/10/21 01:51:16;;;;;;;24.63;17.63;;;9.40;99.90;;;;;;5134170;27;20225;-84
2023/10/21 01:53:43;;;;;;;24.52;19.50;;;9.50;99.90;;;;;;5133583;27;20226;-84
2023/10/21 01:56:10;;;;;;;26.13;20.52;;;9.50;99.90;;;;;;5132003;27;20218;-84
2023/10/21 01:58:39;;;;;;;26.27;18.45;;;9.50;99.90;;;;;;5133135;27;20228;-84
2023/10/21 02:01:11;;;;;;;27.17;18.55;;;9.50;99.90;;;;;;5134295;27;20423;-84
2023/10/21 02:03:38;;;;;;;26.45;18.42;;;9.60;99.90;;;;;;5133580;27;20245;-84
2023/10/21 02:06:08;;;;;;;25.10;17.90;;;9.60;99.90;;;;;;5134179;27;20225;-83
2023/10/21 02:08:36;;;;;;;20.70;16.15;;;9.60;99.90;;;;;;5104920;27;20235;-83
2023/10/21 02:11:03;;;;;;;25.08;17.30;;;9.60;99.90;;;;;;5134083;27;20222;-85
2023/10/21 02:16:55;;;;;;;24.35;18.10;;;9.70;99.90;;;;;;5123906;27;20674;-84
2023/10/21 02:19:22;;;;;;;27.77;19.45;;;9.70;99.90;;;;;;5133655;27;20283;-84
2023/10/21 02:21:49;;;;;;;21.48;17.10;;;9.80;99.90;;;;;;5133392;27;20224;-85
2023/10/21 02:24:16;;;;;;;33.38;18.70;;;9.80;99.90;;;;;;5133600;27;20222;-85
2023/10/21 02:26:43;;;;;;;25.30;17.45;;;9.70;99.90;;;;;;5133762;27;20319;-84
2023/10/21 02:29:10;;;;;;;25.60;18.95;;;9.80;99.90;;;;;;5118350;27;20223;-84
2023/10/21 02:31:37;;;;;;;22.80;16.90;;;9.70;99.90;;;;;;5112793;28;20219;-85
2023/10/21 02:34:05;;;;;;;24.83;18.98;;;9.80;99.90;;;;;;5113483;28;20227;-84
2023/10/21 02:36:34;;;;;;;25.60;18.40;;;9.80;99.90;;;;;;5128958;27;20249;-84
2023/10/21 02:39:07;;;;;;;25.70;17.67;;;9.80;99.90;;;;;;5134049;27;20221;-86
2023/10/21 02:41:36;;;;;;;28.27;19.17;;;9.80;99.90;;;;;;5133166;27;20252;-84
2023/10/21 02:44:03;;;;;;;22.10;16.42;;;9.80;99.90;;;;;;5133082;27;20287;-84
2023/10/21 02:46:34;;;;;;;28.35;20.60;;;9.90;99.90;;;;;;5129992;27;20218;-84
2023/10/21 02:49:01;;;;;;;22.55;17.80;;;9.90;99.90;;;;;;5135645;27;20271;-83
2023/10/21 02:51:34;;;;;;;23.63;17.98;;;9.90;99.90;;;;;;5137296;27;20217;-84
2023/10/21 02:54:01;;;;;;;27.50;18.95;;;9.90;99.90;;;;;;5137618;27;20286;-80
2023/10/21 02:56:28;;;;;;;23.80;17.35;;;9.90;99.90;;;;;;5137103;27;20222;-83
2023/10/21 02:58:55;;;;;;;21.83;15.93;;;10.00;99.90;;;;;;5137351;27;20226;-84
2023/10/21 03:01:24;;;;;;;31.83;19.35;;;10.00;99.90;;;;;;5136395;27;20246;-83
2023/10/21 03:03:52;;;;;;;26.63;19.10;;;10.00;99.90;;;;;;5137772;27;20305;-84
2023/10/21 03:06:21;;;;;;;24.80;19.38;;;10.00;99.90;;;;;;5137107;27;20225;-83
2023/10/21 03:08:49;;;;;;;31.80;20.60;;;9.90;99.90;;;;;;5137604;27;20295;-84
2023/10/21 03:11:17;;;;;;;30.80;21.40;;;10.00;99.90;;;;;;5137499;27;20309;-80
2023/10/21 03:13:44;;;;;;;26.52;19.95;;;10.00;99.90;;;;;;5125998;27;20214;-80
2023/10/21 03:16:13;;;;;;;26.70;20.08;;;10.00;99.90;;;;;;5118980;27;20227;-84
2023/10/21 03:18:41;;;;;;;31.88;19.13;;;9.90;99.90;;;;;;5116734;28;20241;-80
2023/10/21 03:21:09;;;;;;;26.17;18.80;;;9.90;99.90;;;;;;5130765;27;20222;-83
2023/10/21 03:23:37;;;;;;;23.10;17.17;;;9.80;99.90;;;;;;5136830;27;20603;-80
2023/10/21 03:26:06;;;;;;;36.15;19.83;;;9.80;99.90;;;;;;5137026;27;20552;-80
2023/10/21 03:28:34;;;;;;;26.27;19.13;;;9.80;99.90;;;;;;5126593;27;20680;-80
2023/10/21 03:31:06;;;;;;;24.08;18.70;;;9.80;99.90;;;;;;5116954;28;20301;-80
2023/10/21 03:33:33;;;;;;;30.73;18.58;;;9.90;99.90;;;;;;5116251;28;20687;-83
2023/10/21 03:36:02;;;;;;;32.70;20.67;;;9.90;99.90;;;;;;5132994;27;20222;-84
2023/10/21 03:38:38;;;;;;;33.20;18.52;;;9.80;99.90;;;;;;5137018;27;20608;-84
2023/10/21 03:41:09;;;;;;;29.95;19.02;;;9.80;99.90;;;;;;5127670;27;20238;-84
2023/10/21 03:43:37;;;;;;;27.25;19.08;;;9.80;99.90;;;;;;5136011;27;20565;-83
2023/10/21 03:46:06;;;;;;;34.10;19.75;;;9.80;99.90;;;;;;5137537;27;20222;-84
2023/10/21 03:48:34;;;;;;;31.38;18.52;;;9.80;99.90;;;;;;5125693;27;20230;-80
2023/10/21 03:51:04;;;;;;;39.30;20.23;;;9.70;99.90;;;;;;5116063;28;20640;-80
2023/10/21 03:53:37;;;;;;;32.90;18.55;;;9.70;99.90;;;;;;5105546;28;20218;-80
2023/10/21 03:56:05;;;;;;;31.75;19.48;;;9.70;99.90;;;;;;5125601;27;20226;-80
2023/10/21 03:58:36;;;;;;;24.67;18.00;;;9.70;99.90;;;;;;5137447;27;20592;-80
2023/10/21 04:01:05;;;;;;;48.05;20.77;;;9.70;99.90;;;;;;5135662;27;20682;-80
2023/10/21 04:03:33;;;;;;;37.72;20.85;;;9.70;99.90;;;;;;5137164;27;20232;-83
2023/10/21 04:06:00;;;;;;;30.15;18.23;;;9.70;99.90;;;;;;5125661;27;20222;-83
2023/10/21 04:08:29;;;;;;;27.13;19.40;;;9.70;99.90;;;;;;5107646;27;20280;-85
2023/10/21 04:10:59;;;;;;;29.15;21.63;;;9.70;99.90;;;;;;5135268;27;20217;-83
2023/10/21 04:13:28;;;;;;;38.45;19.83;;;9.80;99.90;;;;;;5124598;28;20214;-79
2023/10/21 04:15:55;;;;;;;27.38;20.23;;;9.80;99.90;;;;;;5123952;28;20227;-82
2023/10/21 04:18:23;;;;;;;26.60;19.13;;;9.80;99.90;;;;;;5132672;28;20226;-83
2023/10/21 04:20:50;;;;;;;26.70;19.25;;;9.80;99.90;;;;;;5116873;28;20325;-83
2023/10/21 04:23:17;;;;;;;25.02;19.30;;;9.80;99.90;;;;;;5116428;28;20558;-83
2023/10/21 04:25:44;;;;;;;21.98;17.33;;;9.70;99.90;;;;;;5114811;28;20541;-80
2023/10/21 04:28:11;;;;;;;24.42;18.95;;;9.80;99.90;;;;;;5101671;28;20908;-80
2023/10/21 04:30:40;;;;;;;32.72;20.52;;;9.80;99.90;;;;;;5113551;28;20571;-80
2023/10/21 04:33:12;;;;;;;28.33;17.85;;;9.80;99.90;;;;;;5113590;28;20226;-80
2023/10/21 04:35:39;;;;;;;38.65;20.20;;;9.80;99.90;;;;;;5113538;28;20233;-82
2023/10/21 04:38:09;;;;;;;25.50;18.23;;;9.80;99.90;;;;;;5113503;28;20218;-83
2023/10/21 04:40:36;;;;;;;43.58;19.65;;;9.80;99.90;;;;;;5115026;28;20543;-83
2023/10/21 04:43:06;;;;;;;26.23;17.90;;;9.80;99.90;;;;;;5114074;28;20230;-80
2023/10/21 04:45:33;;;;;;;22.95;19.20;;;9.80;99.90;;;;;;5115168;28;20223;-80
2023/10/21 04:48:03;;;;;;;23.05;18.48;;;9.80;99.90;;;;;;5104815;28;20681;-83
2023/10/21 04:50:35;;;;;;;27.70;19.50;;;9.80;99.90;;;;;;5115094;28;20614;-80
2023/10/21 04:53:02;;;;;;;34.55;19.80;;;9.80;99.90;;;;;;5115097;28;20309;-83
2023/10/21 04:55:29;;;;;;;29.05;19.63;;;9.80;99.90;;;;;;5115207;28;20231;-83
2023/10/21 04:57:57;;;;;;;38.17;20.60;;;9.80;99.90;;;;;;5115406;28;20314;-83
2023/10/21 05:00:24;;;;;;;26.38;19.10;;;9.70;99.90;;;;;;5114749;28;20219;-80
2023/10/21 05:02:51;;;;;;;29.05;20.38;;;9.70;99.90;;;;;;5115230;28;20582;-80
2023/10/21 05:05:21;;;;;;;33.85;19.65;;;9.70;99.90;;;;;;5114555;28;20313;-80
2023/10/21 05:07:48;;;;;;;28.48;20.73;;;9.70;99.90;;;;;;5115078;28;20254;-80
2023/10/21 05:10:15;;;;;;;32.25;20.50;;;9.70;99.90;;;;;;5114297;28;20269;-80
2023/10/21 05:12:42;;;;;;;22.20;18.23;;;9.70;99.90;;;;;;5115115;28;20570;-80
2023/10/21 05:15:20;;;;;;;29.35;20.88;;;9.70;99.90;;;;;;5114400;28;20613;-80
2023/10/21 05:17:48;;;;;;;26.92;19.95;;;9.70;99.90;;;;;;5091922;28;20272;-80
2023/10/21 05:20:19;;;;;;;23.30;18.42;;;9.70;99.90;;;;;;5115066;28;20319;-80
2023/10/21 05:22:46;;;;;;;24.65;19.05;;;9.70;99.90;;;;;;5114622;28;20219;-80
2023/10/21 05:25:13;;;;;;;66.47;22.25;;;9.70;99.90;;;;;;5114805;28;20288;-80
2023/10/21 05:27:39;;;;;;;35.13;19.88;;;9.70;99.90;;;;;;5114798;28;20318;-83
2023/10/21 05:30:08;;;;;;;39.78;21.63;;;9.70;99.90;;;;;;5114350;28;20215;-83
2023/10/21 05:32:37;;;;;;;26.80;18.92;;;9.70;99.90;;;;;;5114864;28;20253;-83
2023/10/21 05:35:07;;;;;;;24.83;19.02;;;9.80;99.90;;;;;;5113811;28;20230;-83
2023/10/21 05:37:36;;;;;;;43.63;21.70;;;9.80;99.90;;;;;;5114841;28;20268;-83
2023/10/21 05:40:05;;;;;;;27.13;20.52;;;9.80;99.90;;;;;;5114167;28;20223;-83
2023/10/21 05:42:31;;;;;;;32.85;20.38;;;9.80;99.90;;;;;;5114490;28;20279;-80
2023/10/21 05:44:58;;;;;;;58.72;21.80;;;9.70;99.90;;;;;;5113994;28;20734;-80
2023/10/21 05:47:26;;;;;;;30.65;20.48;;;9.70;99.90;;;;;;5113472;28;20233;-80
2023/10/21 05:49:53;;;;;;;23.77;18.75;;;9.70;99.90;;;;;;5113966;28;20229;-80
2023/10/21 05:52:20;;;;;;;26.25;20.77;;;9.80;99.90;;;;;;5114279;28;20232;-80
2023/10/21 05:54:48;;;;;;;26.60;18.27;;;9.80;99.90;;;;;;5113295;28;20272;-80
2023/10/21 05:57:15;;;;;;;20.27;16.63;;;9.90;99.90;;;;;;5113256;28;20229;-83
2023/10/21 05:59:43;;;;;;;30.40;20.95;;;9.90;99.90;;;;;;5114160;28;20222;-83
2023/10/21 06:02:19;;;;;;;35.75;18.88;;;9.90;99.90;;;;;;5111055;28;20230;-83
2023/10/21 06:04:46;;;;;;;28.58;18.48;;;9.90;99.90;;;;;;5113337;28;20300;-83
2023/10/21 06:07:13;;;;;;;31.25;18.95;;;9.90;99.90;;;;;;5113856;28;20218;-83
2023/10/21 06:09:40;;;;;;;25.80;16.83;;;9.80;99.90;;;;;;5113843;28;20253;-80
2023/10/21 06:12:10;;;;;;;25.02;18.25;;;9.90;99.90;;;;;;5102571;28;20619;-80
2023/10/21 06:14:37;;;;;;;36.15;17.58;;;9.80;99.90;;;;;;5113914;28;20313;-83
2023/10/21 06:17:04;;;;;;;24.13;17.40;;;9.90;99.90;;;;;;5113393;28;20261;-83
2023/10/21 06:19:34;;;;;;;34.90;17.60;;;9.90;99.90;;;;;;5113886;28;20218;-83
2023/10/21 06:22:02;;;;;;;24.95;18.45;;;9.90;99.90;;;;;;5113192;28;20255;-84
2023/10/21 06:24:31;;;;;;;23.05;17.77;;;9.90;99.90;;;;;;5113170;28;20567;-83
2023/10/21 06:26:58;;;;;;;28.00;18.52;;;9.90;99.90;;;;;;5113558;28;20253;-83
2023/10/21 06:29:27;;;;;;;23.38;17.27;;;9.90;99.90;;;;;;5094157;28;20233;-80
2023/10/21 06:31:54;;;;;;;26.48;17.25;;;9.90;99.90;;;;;;5104258;28;20301;-83
2023/10/21 06:34:21;;;;;;;53.95;20.30;;;9.90;99.90;;;;;;5112753;28;20222;-83
2023/10/21 06:36:51;;;;;;;24.42;18.70;;;9.90;99.90;;;;;;5114082;28;20608;-80
2023/10/21 06:39:18;;;;;;;47.38;20.20;;;9.90;99.90;;;;;;5112676;28;20221;-83
2023/10/21 06:41:45;;;;;;;20.83;16.65;;;9.90;99.90;;;;;;5113261;28;20215;-80
2023/10/21 06:44:16;;;;;;;24.52;17.52;;;9.90;99.90;;;;;;5112956;28;20250;-83
2023/10/21 06:46:46;;;;;;;41.38;19.67;;;9.90;99.90;;;;;;5113608;28;20229;-80
2023/10/21 06:49:16;;;;;;;35.38;18.67;;;9.90;99.90;;;;;;5112763;28;20230;-83
2023/10/21 06:51:49;;;;;;;26.92;18.35;;;9.90;99.90;;;;;;5113925;28;20301;-83
2023/10/21 06:54:17;;;;;;;31.70;17.80;;;9.90;99.90;;;;;;5083556;28;20219;-83
2023/10/21 06:56:46;;;;;;;29.70;18.63;;;9.90;99.90;;;;;;5113571;28;20676;-80
2023/10/21 06:59:14;;;;;;;28.55;17.70;;;9.90;99.90;;;;;;5102444;28;20295;-80
2023/10/21 07:01:44;;;;;;;28.35;19.60;;;10.00;99.90;;;;;;5113884;28;20218;-81
2023/10/21 07:04:14;;;;;;;23.92;17.20;;;10.00;99.90;;;;;;5113718;28;20234;-83
2023/10/21 07:06:41;;;;;;;23.65;15.95;;;10.00;99.90;;;;;;5112744;28;20214;-84
2023/10/21 07:09:08;;;;;;;40.03;17.85;;;10.10;99.90;;;;;;5113178;28;20309;-80
2023/10/21 07:11:35;;;;;;;25.90;19.02;;;10.00;99.90;;;;;;5113312;28;20593;-83
2023/10/21 07:14:03;;;;;;;25.65;19.90;;;10.00;99.90;;;;;;5113087;28;20218;-83
2023/10/21 07:17:00;;;;;;;27.52;18.90;;;10.00;99.90;;;;;;5102406;28;20223;-83
2023/10/21 07:19:28;;;;;;;21.33;16.67;;;10.00;99.90;;;;;;5103133;28;20223;-83
2023/10/21 07:21:55;;;;;;;23.52;17.88;;;10.00;99.90;;;;;;5113628;28;20306;-83
2023/10/21 07:24:22;;;;;;;23.13;17.75;;;10.00;99.90;;;;;;5112589;28;20223;-83
2023/10/21 07:26:49;;;;;;;23.60;17.92;;;10.10;99.90;;;;;;5113600;28;20295;-83
2023/10/21 07:29:16;;;;;;;27.23;17.85;;;10.10;99.90;;;;;;5102571;28;20259;-83
2023/10/21 07:31:43;;;;;;;27.35;17.85;;;10.10;99.90;;;;;;5112183;28;20707;-83
2023/10/21 07:34:11;;;;;;;25.77;18.63;;;10.20;99.90;;;;;;5097909;28;20322;-80
2023/10/21 07:36:39;;;;;;;26.10;18.50;;;10.30;99.90;;;;;;5105356;28;20230;-83
2023/10/21 07:39:07;;;;;;;24.90;19.38;;;10.30;99.90;;;;;;5116246;28;20680;-83
2023/10/21 07:41:34;;;;;;;24.23;19.35;;;10.30;99.90;;;;;;5116266;28;20214;-83
2023/10/21 07:44:01;;;;;;;23.77;18.02;;;10.40;99.90;;;;;;5116683;28;20223;-83
2023/10/21 07:46:36;;;;;;;29.98;19.13;;;10.40;99.90;;;;;;5116077;28;20226;-80
2023/10/21 07:49:06;;;;;;;26.42;18.65;;;10.50;99.90;;;;;;5116607;28;20294;-83
2023/10/21 07:51:33;;;;;;;25.15;18.92;;;10.50;99.90;;;;;;5116368;28;20298;-79
2023/10/21 07:54:05;;;;;;;22.13;18.23;;;10.60;99.90;;;;;;5115021;28;20733;-80
2023/10/21 07:56:32;;;;;;;24.80;19.35;;;10.60;99.90;;;;;;5116323;28;20257;-81
2023/10/21 07:59:02;;;;;;;25.00;18.40;;;10.70;99.90;;;;;;5116920;28;20226;-82
2023/10/21 08:01:31;;;;;;;21.52;17.15;;;10.70;99.90;;;;;;5115784;28;20230;-83
2023/10/21 08:03:58;;;;;;;18.73;16.55;;;10.70;99.90;;;;;;5116162;28;20230;-80
2023/10/21 08:06:26;;;;;;;20.98;17.20;;;10.80;99.90;;;;;;5116265;28;20238;-83
2023/10/21 08:08:53;;;;;;;21.63;17.95;;;10.90;99.90;;;;;;5115828;28;20688;-81
2023/10/21 08:11:23;;;;;;;20.55;17.08;;;10.90;99.90;;;;;;5106719;28;20226;-84
2023/10/21 08:13:53;;;;;;;22.05;16.92;;;11.00;99.90;;;;;;5106109;28;20222;-81
2023/10/21 08:16:20;;;;;;;18.83;16.67;;;10.90;99.90;;;;;;5114790;28;20246;-84
2023/10/21 08:18:47;;;;;;;16.58;14.52;;;10.90;99.90;;;;;;5116249;28;20223;-81
2023/10/21 08:21:14;;;;;;;20.90;16.50;;;11.00;99.90;;;;;;5116143;28;20229;-83
2023/10/21 08:23:41;;;;;;;17.38;15.50;;;11.10;99.90;;;;;;5115676;28;20272;-84
2023/10/21 08:26:08;;;;;;;22.08;16.10;;;11.20;99.90;;;;;;5116228;28;20237;-81
2023/10/21 08:28:43;;;;;;;18.58;15.35;;;11.20;99.90;;;;;;5114794;27;20260;-83
2023/10/21 08:31:10;;;;;;;18.17;15.20;;;11.20;99.90;;;;;;5115707;28;20222;-80
2023/10/21 08:33:37;;;;;;;16.63;14.82;;;11.30;99.90;;;;;;5115521;28;20280;-80
2023/10/21 08:36:05;;;;;;;21.75;15.82;;;11.30;99.90;;;;;;5116395;28;20230;-83
2023/10/21 08:38:34;;;;;;;20.58;16.80;;;11.40;99.90;;;;;;5114594;28;20223;-83
2023/10/21 08:41:06;;;;;;;18.08;16.13;;;11.50;99.90;;;;;;5116345;28;20226;-82
2023/10/21 08:43:36;;;;;;;16.13;14.52;;;11.50;99.90;;;;;;5116158;27;20318;-80
2023/10/21 08:46:10;;;;;;;18.05;15.88;;;11.50;99.90;;;;;;5118308;28;20230;-83
2023/10/21 08:48:43;;;;;;;20.55;16.42;;;11.60;99.90;;;;;;5106775;27;20249;-80
2023/10/21 08:51:19;;;;;;;18.67;15.75;;;11.70;99.90;;;;;;5117662;28;20222;-80
2023/10/21 08:53:48;;;;;;;16.77;14.05;;;11.80;99.90;;;;;;5092906;28;20254;-81
2023/10/21 08:56:16;;;;;;;15.88;14.27;;;11.80;99.90;;;;;;5116114;28;20238;-83
2023/10/21 08:58:43;;;;;;;18.15;15.77;;;11.90;99.90;;;;;;5107187;28;20294;-83
2023/10/21 09:01:16;;;;;;;14.25;12.85;;;12.00;99.90;;;;;;5116799;28;20284;-79
2023/10/21 09:03:44;;;;;;;17.08;14.88;;;12.10;99.90;;;;;;5115441;28;20223;-82
2023/10/21 09:06:18;;;;;;;16.92;15.18;;;12.10;99.90;;;;;;5116058;28;20261;-82
2023/10/21 09:08:48;;;;;;;16.25;14.55;;;12.20;99.90;;;;;;5102619;28;20309;-80
2023/10/21 09:11:19;;;;;;;17.30;15.50;;;12.30;99.90;;;;;;5115635;28;20302;-80
2023/10/21 09:13:47;;;;;;;18.65;15.48;;;12.40;99.90;;;;;;5114124;28;20305;-80
2023/10/21 09:16:34;;;;;;;16.13;14.55;;;12.40;99.90;;;;;;5114732;28;20685;-80
2023/10/21 09:19:03;;;;;;;17.73;15.63;;;12.50;99.90;;;;;;5112508;28;20218;-81
2023/10/21 09:21:36;;;;;;;17.02;15.15;;;12.60;99.90;;;;;;5086852;28;20222;-83
2023/10/21 09:24:06;;;;;;;18.23;16.42;;;12.60;99.90;;;;;;5115819;28;20287;-83
2023/10/21 09:26:39;;;;;;;20.17;14.50;;;12.70;99.90;;;;;;5105355;28;20226;-83
2023/10/21 09:29:08;;;;;;;16.25;14.65;;;12.70;99.90;;;;;;5115512;28;20309;-84
2023/10/21 09:31:51;;;;;;;14.30;12.80;;;12.80;99.90;;;;;;5114253;28;20219;-84
2023/10/21 09:34:24;;;;;;;16.73;14.80;;;12.90;99.90;;;;;;5114639;28;20295;-84
2023/10/21 09:36:53;;;;;;;16.90;15.20;;;12.90;99.90;;;;;;5115876;28;20529;-83
2023/10/21 09:39:28;;;;;;;15.73;13.80;;;12.90;99.90;;;;;;5112754;28;20958;-81
2023/10/21 09:41:56;;;;;;;16.70;15.10;;;13.00;99.90;;;;;;5114104;28;20464;-81
2023/10/21 09:44:25;;;;;;;18.27;15.67;;;13.10;99.90;;;;;;5109214;28;20574;-82
2023/10/21 09:47:05;;;;;;;17.80;14.88;;;13.10;99.90;;;;;;5114588;28;20545;-84
2023/10/21 09:49:37;;;;;;;15.20;13.70;;;13.20;99.90;;;;;;5104630;28;20223;-84
2023/10/21 09:52:07;;;;;;;15.43;13.23;;;13.30;99.90;;;;;;5115131;28;20464;-84
2023/10/21 09:54:40;;;;;;;16.27;14.27;;;13.40;99.90;;;;;;5114350;28;20496;-84
2023/10/21 09:57:44;;;;;;;13.50;12.17;;;13.50;99.90;;;;;;5115116;28;20473;-83
2023/10/21 10:00:19;;;;;;;14.77;13.40;;;13.60;99.90;;;;;;5100589;28;20809;-80
2023/10/21 10:02:53;;;;;;;12.17;10.97;;;13.70;99.90;;;;;;5113222;28;20961;-80
2023/10/21 10:05:21;;;;;;;14.23;12.73;;;13.80;99.90;;;;;;5113660;28;20536;-80
2023/10/21 10:07:55;;;;;;;12.50;11.30;;;13.90;99.90;;;;;;5118637;27;20522;-84
2023/10/21 10:10:23;;;;;;;12.60;11.40;;;14.00;99.90;;;;;;5113998;28;20468;-80
2023/10/21 10:13:02;;;;;;;12.80;11.60;;;14.10;99.90;;;;;;5102704;28;20962;-80
2023/10/21 10:15:34;;;;;;;12.07;11.07;;;14.20;99.90;;;;;;5113340;28;20471;-83
2023/10/21 10:18:10;;;;;;;13.00;11.70;;;14.30;99.90;;;;;;5105422;28;20457;-79
2023/10/21 10:20:46;;;;;;;13.10;11.80;;;14.30;99.90;;;;;;5115119;28;20464;-80
2023/10/21 10:23:12;;;;;;;10.80;9.90;;;14.40;99.90;;;;;;5111391;28;20464;-82
2023/10/21 10:25:46;;;;;;;13.33;12.03;;;14.50;99.90;;;;;;5114727;28;20555;-83
2023/10/21 10:28:17;;;;;;;10.90;9.80;;;14.50;99.90;;;;;;5114317;28;20456;-84
2023/10/21 10:30:49;;;;;;;10.53;9.07;;;14.60;99.90;;;;;;5114447;28;20471;-80
2023/10/21 10:33:22;;;;;;;9.80;8.80;;;14.70;99.90;;;;;;5113743;28;20457;-80
2023/10/21 10:35:51;;;;;;;10.30;9.40;;;14.70;99.90;;;;;;5099256;28;20468;-79
2023/10/21 10:38:24;;;;;;;11.67;8.97;;;14.80;99.90;;;;;;5116365;28;20460;-82
2023/10/21 10:41:01;;;;;;;9.20;8.40;;;14.90;99.90;;;;;;5103316;28;20480;-80
2023/10/21 10:43:29;;;;;;;10.53;7.57;;;14.90;99.90;;;;;;5114643;28;20464;-80
2023/10/21 10:45:57;;;;;;;8.00;7.30;;;15.10;99.90;;;;;;5113906;28;20795;-84
2023/10/21 10:48:25;;;;;;;8.57;7.77;;;15.10;99.90;;;;;;5114592;28;20492;-80
2023/10/21 10:50:57;;;;;;;6.53;6.03;;;15.20;99.90;;;;;;5113071;28;20481;-80
2023/10/21 10:53:25;;;;;;;9.00;8.10;;;15.30;99.90;;;;;;5112854;28;20474;-81
2023/10/21 10:55:53;;;;;;;7.47;6.80;;;15.30;99.90;;;;;;5113350;28;20820;-81
2023/10/21 10:58:21;;;;;;;7.20;6.60;;;15.50;99.90;;;;;;5104776;28;20588;-81
2023/10/21 11:00:49;;;;;;;9.00;8.10;;;15.60;99.90;;;;;;5113013;28;20551;-80
2023/10/21 11:03:31;;;;;;;11.37;10.27;;;15.70;99.90;;;;;;5113548;28;20772;-80
2023/10/21 11:05:59;;;;;;;12.30;11.10;;;15.70;99.90;;;;;;5113837;28;20540;-82
2023/10/21 11:08:27;;;;;;;9.00;8.20;;;15.80;99.90;;;;;;5112637;28;20465;-80
2023/10/21 11:11:10;;;;;;;7.53;6.83;;;15.90;99.90;;;;;;5120640;27;20500;-80
2023/10/21 11:13:37;;;;;;;7.33;6.37;;;15.90;99.90;;;;;;5116755;28;20468;-80
2023/10/21 11:16:07;;;;;;;6.80;6.20;;;16.00;99.90;;;;;;5116325;28;20543;-81
2023/10/21 11:18:36;;;;;;;4.93;4.53;;;16.10;99.90;;;;;;5118281;28;20472;-83
2023/10/21 11:21:04;;;;;;;4.00;3.70;;;16.10;99.90;;;;;;5132487;28;20468;-83
2023/10/21 11:23:32;;;;;;;6.77;4.03;;;16.20;99.90;;;;;;5134127;27;20495;-83
2023/10/21 11:26:01;;;;;;;5.80;4.17;;;16.30;99.90;;;;;;5133430;28;20481;-84
2023/10/21 11:28:29;;;;;;;3.80;3.30;;;16.30;99.90;;;;;;5127878;28;20911;-81
2023/10/21 11:31:01;;;;;;;2.50;2.30;;;16.40;99.90;;;;;;5118701;28;20880;-83
2023/10/21 11:33:29;;;;;;;5.23;3.93;;;16.50;99.90;;;;;;5116927;28;20468;-83
2023/10/21 11:35:57;;;;;;;3.33;2.90;;;16.50;99.90;;;;;;5117190;28;20486;-84
2023/10/21 11:38:25;;;;;;;4.43;4.03;;;16.60;99.90;;;;;;5117256;28;20490;-81
2023/10/21 11:40:54;;;;;;;3.17;2.83;;;16.60;99.90;;;;;;5116903;28;21039;-80
2023/10/21 11:43:21;;;;;;;5.10;2.90;;;16.60;99.90;;;;;;5116584;28;20482;-81
2023/10/21 11:45:49;;;;;;;2.07;1.90;;;16.70;99.90;;;;;;5117118;28;20463;-81
2023/10/21 11:48:17;;;;;;;3.00;2.60;;;16.70;99.90;;;;;;5107232;28;20475;-80
2023/10/21 11:50:46;;;;;;;3.30;3.00;;;16.80;99.90;;;;;;5117414;28;20463;-80
2023/10/21 11:53:15;;;;;;;2.90;2.70;;;16.80;99.90;;;;;;5116402;28;20529;-83
2023/10/21 12:15:07;;;;;;;3.30;2.60;;;17.00;99.90;;;;;;5103857;27;20524;-80
2023/10/21 12:21:12;;;;;;;2.07;1.87;;;17.10;99.90;;;;;;5116479;28;20529;-84
2023/10/21 12:23:59;;;;;;;2.00;1.30;;;17.20;99.90;;;;;;5116135;28;20472;-79
2023/10/21 12:26:52;;;;;;;2.90;2.70;;;17.20;99.90;;;;;;5104939;28;20483;-80
2023/10/21 12:37:53;;;;;;;2.07;1.87;;;17.10;99.90;;;;;;5114617;28;20456;-84
2023/10/21 12:40:31;;;;;;;3.10;2.27;;;17.10;99.90;;;;;;5116424;28;20871;-82
2023/10/21 12:45:46;;;;;;;2.77;2.10;;;17.10;99.90;;;;;;5117354;27;20669;-83
2023/10/21 12:50:58;;;;;;;1.20;1.10;;;17.10;99.90;;;;;;5106416;28;20524;-81
2023/10/21 12:53:26;;;;;;;3.33;2.33;;;17.10;99.90;;;;;;5116631;28;20471;-84
2023/10/21 12:55:56;;;;;;;2.87;2.67;;;17.10;99.90;;;;;;5116479;28;20479;-84
2023/10/21 12:58:32;;;;;;;2.37;2.17;;;17.10;99.90;;;;;;5116473;28;20868;-80
2023/10/21 13:01:00;;;;;;;2.17;1.60;;;17.10;99.90;;;;;;5116733;28;20456;-81
2023/10/21 13:03:35;;;;;;;4.37;2.40;;;17.20;99.90;;;;;;5118007;28;20464;-84
2023/10/21 13:06:06;;;;;;;3.57;2.43;;;17.20;99.90;;;;;;5115915;28;20968;-83
2023/10/21 13:08:33;;;;;;;2.13;1.93;;;17.20;99.90;;;;;;5117387;28;20491;-84
2023/10/21 13:11:00;;;;;;;1.67;1.33;;;17.10;99.90;;;;;;5114822;28;20500;-83
2023/10/21 13:13:35;;;;;;;1.20;1.10;;;17.20;99.90;;;;;;5115059;28;20864;-79
2023/10/21 13:16:07;;;;;;;2.83;2.10;;;17.20;99.90;;;;;;5115879;28;20840;-84
2023/10/21 13:18:36;;;;;;;5.33;2.27;;;17.20;99.90;;;;;;5116907;28;20954;-84
2023/10/21 13:21:06;;;;;;;3.03;2.73;;;17.30;99.90;;;;;;5115319;28;20914;-84
2023/10/21 13:23:34;;;;;;;1.83;1.73;;;17.30;99.90;;;;;;5115995;28;20895;-84
2023/10/21 13:26:06;;;;;;;2.80;1.83;;;17.30;99.90;;;;;;5113627;28;21991;-83
2023/10/21 13:28:38;;;;;;;3.73;1.60;;;17.30;99.90;;;;;;5115912;28;20464;-85
2023/10/21 13:31:06;;;;;;;2.17;1.93;;;17.30;99.90;;;;;;5114540;28;20467;-83